Time;durP1;ratioP1;P1;durP2;ratioP2;P2;SDS_P1;SDS_P2;PMS_P1;PMS_P2;Temp;Humidity;BMP_temperature;BMP_pressure;BME280_temperature;BME280_humidity;BME280_pressure;Samples;Min_cycle;Max_cycle;Signal;HPM_P1;HPM_P2
2023/02/13 00:00:47;;;;;;;19.90;12.85;;;;;;;3.97;90.45;100046.75;4136272;28;20706;-83
2023/02/13 00:02:51;;;;;;;21.30;13.20;;;;;;;3.93;89.65;100043.38;4142058;28;20348;-84
2023/02/13 00:04:54;;;;;;;20.20;13.48;;;;;;;3.92;89.83;100043.38;4154784;28;20203;-83
2023/02/13 00:06:57;;;;;;;19.90;13.20;;;;;;;3.92;89.13;100036.47;4155078;28;20785;-83
2023/02/13 00:09:01;;;;;;;18.55;12.90;;;;;;;3.92;89.55;100036.47;4152330;28;20748;-82
2023/02/13 00:11:06;;;;;;;19.75;12.75;;;;;;;3.86;89.40;100038.28;4166355;28;20240;-83
2023/02/13 00:13:09;;;;;;;20.50;13.10;;;;;;;3.82;89.42;100028.91;4168499;28;20210;-83
2023/02/13 00:15:12;;;;;;;17.80;11.98;;;;;;;3.80;89.70;100028.91;4152074;28;20605;-82
2023/02/13 00:17:15;;;;;;;20.95;11.80;;;;;;;3.75;90.55;100030.66;4155242;28;20296;-83
2023/02/13 00:19:18;;;;;;;19.13;12.60;;;;;;;3.75;89.85;100032.41;4133922;28;20203;-83
2023/02/13 00:21:21;;;;;;;19.30;12.63;;;;;;;3.72;90.48;100030.69;4172167;28;20198;-82
2023/02/13 00:23:25;;;;;;;19.80;13.40;;;;;;;3.70;89.24;100023.84;4155891;28;20594;-83
2023/02/13 00:25:28;;;;;;;18.55;12.20;;;;;;;3.67;90.23;100025.59;4168835;28;20210;-83
2023/02/13 00:27:33;;;;;;;21.75;14.40;;;;;;;3.69;89.56;100026.44;4167224;28;20293;-83
2023/02/13 00:29:37;;;;;;;21.98;12.88;;;;;;;3.57;90.27;100027.41;4153669;28;20290;-83
2023/02/13 00:31:40;;;;;;;22.33;14.02;;;;;;;3.53;90.34;100024.88;4165543;28;20748;-83
2023/02/13 00:33:43;;;;;;;21.20;13.60;;;;;;;3.53;90.34;100025.72;4148141;28;20211;-83
2023/02/13 00:35:46;;;;;;;20.02;12.95;;;;;;;3.53;90.17;100019.72;4155891;28;20241;-83
2023/02/13 00:37:49;;;;;;;22.55;14.43;;;;;;;3.57;90.93;100021.41;4156341;28;20308;-82
2023/02/13 00:39:53;;;;;;;23.45;15.73;;;;;;;3.55;93.58;100015.41;4157608;28;20217;-82
2023/02/13 00:41:56;;;;;;;23.58;14.30;;;;;;;3.59;93.45;100022.25;4153833;28;20717;-83
2023/02/13 00:44:00;;;;;;;21.52;14.70;;;;;;;3.63;92.37;100026.50;4170279;28;20230;-83
2023/02/13 00:46:06;;;;;;;24.45;14.30;;;;;;;3.68;93.47;100025.56;4154356;28;20920;-84
2023/02/13 00:48:09;;;;;;;23.67;15.25;;;;;;;3.72;93.11;100030.69;4169773;28;20237;-83
2023/02/13 00:50:12;;;;;;;21.25;14.35;;;;;;;3.78;93.39;100029.78;4152104;28;20298;-82
2023/02/13 00:52:15;;;;;;;21.48;14.13;;;;;;;3.79;92.16;100029.78;4158237;28;20199;-83
2023/02/13 00:54:19;;;;;;;27.08;15.40;;;;;;;3.82;92.80;100034.06;4165517;28;20198;-83
2023/02/13 00:56:29;;;;;;;21.95;13.45;;;;;;;3.83;92.78;100026.28;4155263;28;20214;-83
2023/02/13 00:58:32;;;;;;;20.70;13.32;;;;;;;3.85;92.86;100024.53;4171400;28;20206;-83
2023/02/13 01:00:37;;;;;;;19.80;13.55;;;;;;;3.88;92.50;100023.66;4153097;28;20204;-83
2023/02/13 01:02:40;;;;;;;21.40;12.93;;;;;;;3.84;92.24;100027.97;4162832;28;20207;-83
2023/02/13 01:04:43;;;;;;;24.55;14.07;;;;;;;3.88;91.57;100028.81;4154615;28;20223;-83
2023/02/13 01:06:46;;;;;;;19.00;12.95;;;;;;;3.87;92.39;100029.69;4171088;28;20207;-83
2023/02/13 01:08:50;;;;;;;22.88;13.52;;;;;;;3.88;92.42;100024.50;4156538;28;20307;-84
2023/02/13 01:10:53;;;;;;;22.40;13.43;;;;;;;3.90;92.84;100024.50;4149322;28;20261;-84
2023/02/13 01:12:56;;;;;;;20.85;13.88;;;;;;;3.92;92.85;100026.16;4152157;28;20216;-83
2023/02/13 01:14:59;;;;;;;23.65;14.98;;;;;;;3.91;92.27;100026.19;4168516;28;20265;-84
2023/02/13 01:17:04;;;;;;;21.23;14.07;;;;;;;3.88;92.21;100031.41;4152491;28;20210;-83
2023/02/13 01:19:07;;;;;;;21.05;13.30;;;;;;;3.88;92.68;100029.66;4169202;28;20721;-84
2023/02/13 01:21:22;;;;;;;22.17;13.95;;;;;;;3.91;91.77;100028.75;4168024;28;20217;-84
2023/02/13 01:23:30;;;;;;;16.83;12.10;;;;;;;3.90;91.94;100032.22;4164982;28;20217;-83
2023/02/13 01:25:33;;;;;;;21.50;13.70;;;;;;;3.91;91.83;100028.75;4154650;28;20610;-83
2023/02/13 01:27:37;;;;;;;24.13;16.02;;;;;;;3.86;91.77;100030.53;4153050;28;20202;-83
2023/02/13 01:29:40;;;;;;;23.73;14.63;;;;;;;3.79;90.70;100026.34;4156672;28;20211;-83
2023/02/13 01:31:43;;;;;;;20.30;13.38;;;;;;;3.76;92.24;100027.22;4143811;28;20211;-83
2023/02/13 01:33:47;;;;;;;19.15;13.23;;;;;;;3.76;91.80;100028.97;4156335;28;20237;-83
2023/02/13 01:35:51;;;;;;;22.88;14.02;;;;;;;3.73;90.44;100029.81;4168234;28;20199;-83
2023/02/13 01:37:54;;;;;;;21.30;13.75;;;;;;;3.69;91.12;100029.88;4140000;28;20195;-83
2023/02/13 01:39:58;;;;;;;19.25;13.63;;;;;;;3.67;90.96;100029.03;4155414;28;20643;-83
2023/02/13 01:42:02;;;;;;;18.45;12.73;;;;;;;3.64;89.98;100029.06;4136123;28;20692;-83
2023/02/13 01:44:38;;;;;;;20.55;12.38;;;;;;;3.65;90.92;100020.44;4142140;28;20231;-84
2023/02/13 01:46:43;;;;;;;21.60;12.80;;;;;;;3.64;90.51;100023.91;4155131;28;20211;-84
2023/02/13 01:48:48;;;;;;;18.05;12.65;;;;;;;3.63;90.85;100022.19;4144990;28;20203;-83
2023/02/13 01:50:53;;;;;;;18.83;12.65;;;;;;;3.63;90.33;100022.19;4152625;28;20199;-83
2023/02/13 01:53:02;;;;;;;21.45;13.07;;;;;;;3.60;90.29;100021.38;4143775;28;20257;-84
2023/02/13 01:55:06;;;;;;;19.90;13.23;;;;;;;3.60;89.63;100029.97;4159827;28;20224;-83
2023/02/13 01:57:13;;;;;;;19.20;12.45;;;;;;;3.56;89.04;100017.97;4176117;28;20586;-82
2023/02/13 01:59:19;;;;;;;19.48;12.60;;;;;;;3.56;89.62;100019.69;4155258;28;20288;-82
2023/02/13 02:01:22;;;;;;;19.02;12.80;;;;;;;3.54;89.27;100021.44;4156170;28;20205;-83
2023/02/13 02:03:27;;;;;;;22.33;14.05;;;;;;;3.52;89.85;100023.16;4156648;28;22242;-83
2023/02/13 02:05:37;;;;;;;21.55;13.25;;;;;;;3.48;89.59;100021.50;4156682;28;21220;-83
2023/02/13 02:07:41;;;;;;;21.20;13.77;;;;;;;3.46;89.45;100024.09;4155413;28;20304;-83
2023/02/13 02:09:45;;;;;;;21.38;13.98;;;;;;;3.45;90.04;100014.63;4141886;28;20650;-83
2023/02/13 02:11:52;;;;;;;22.23;13.05;;;;;;;3.44;89.25;100012.94;4145484;28;20255;-83
2023/02/13 02:13:56;;;;;;;25.52;14.52;;;;;;;3.47;89.54;100014.63;4157052;28;20273;-83
2023/02/13 02:16:07;;;;;;;20.90;13.25;;;;;;;3.45;90.11;100017.22;4153655;28;20207;-83
2023/02/13 02:18:15;;;;;;;33.65;17.48;;;;;;;3.44;90.01;100015.53;4140543;28;20825;-82
2023/02/13 02:20:26;;;;;;;30.08;16.08;;;;;;;3.43;89.96;100018.97;4141830;28;20202;-83
2023/02/13 02:22:59;;;;;;;23.15;13.27;;;;;;;3.38;90.47;100006.97;4142676;28;20695;-83
2023/02/13 02:25:24;;;;;;;23.42;14.20;;;;;;;3.34;90.22;100010.47;4175335;28;20218;-83
2023/02/13 02:27:45;;;;;;;18.42;12.65;;;;;;;3.30;89.78;100001.88;4150000;28;20283;-83
2023/02/13 02:30:20;;;;;;;24.08;14.00;;;;;;;3.25;89.91;99996.78;4171436;28;20276;-84
2023/02/13 02:32:49;;;;;;;19.50;12.20;;;;;;;3.23;89.08;100001.13;4155172;28;20839;-83
2023/02/13 02:34:57;;;;;;;19.05;12.65;;;;;;;3.18;89.54;99995.16;4145479;28;20225;-83
2023/02/13 02:37:10;;;;;;;18.83;11.50;;;;;;;3.15;89.67;99995.19;4139116;28;20202;-83
2023/02/13 02:39:22;;;;;;;17.63;11.95;;;;;;;3.12;89.36;99990.06;4174730;28;20228;-83
2023/02/13 02:41:41;;;;;;;19.15;12.85;;;;;;;3.10;89.56;99991.81;4141276;28;20276;-82
2023/02/13 02:43:54;;;;;;;19.85;12.55;;;;;;;3.06;89.41;99990.94;4158496;28;20265;-83
2023/02/13 02:46:02;;;;;;;18.90;12.55;;;;;;;3.05;89.41;99988.38;4158500;28;20285;-83
2023/02/13 02:50:35;;;;;;;21.75;14.18;;;;;;;3.02;89.50;99993.56;4142168;28;20277;-82
2023/02/13 02:52:48;;;;;;;21.13;13.50;;;;;;;3.00;89.59;99985.00;4160126;28;20241;-83
2023/02/13 02:55:06;;;;;;;22.60;13.05;;;;;;;3.01;88.67;99987.56;4174859;28;20194;-83
2023/02/13 02:57:21;;;;;;;22.92;13.52;;;;;;;2.93;89.70;99983.31;4153506;28;20295;-83
2023/02/13 03:06:46;;;;;;;19.33;12.50;;;;;;;2.81;88.93;99983.41;4144402;28;20694;-83
2023/02/13 03:13:41;;;;;;;21.38;13.88;;;;;;;2.77;89.46;99991.19;4163086;28;20218;-83
2023/02/13 03:23:08;;;;;;;19.80;13.10;;;;;;;2.68;89.56;100002.41;4154454;28;20284;-83
2023/02/13 03:25:17;;;;;;;20.15;13.02;;;;;;;2.67;89.14;100005.00;4154627;28;20230;-82
2023/02/13 03:30:10;;;;;;;23.65;14.00;;;;;;;2.65;89.25;100011.91;4131424;28;20293;-83
2023/02/13 03:32:21;;;;;;;21.08;13.00;;;;;;;2.65;89.08;100017.88;4151220;28;20692;-83
2023/02/13 03:37:53;;;;;;;20.42;13.25;;;;;;;2.62;89.08;100019.63;4166005;28;20202;-83
2023/02/13 03:39:18;;;;;;;20.45;13.18;;;;;;;2.61;89.58;100021.34;4154920;28;20207;-82
2023/02/13 03:41:23;;;;;;;22.67;14.40;;;;;;;2.58;89.59;100023.09;4149913;28;20199;-83
2023/02/13 03:43:27;;;;;;;21.23;13.00;;;;;;;2.60;89.63;100021.34;4170332;28;20210;-82
2023/02/13 03:47:55;;;;;;;20.15;12.80;;;;;;;2.60;89.47;100027.38;4156123;28;20203;-84
2023/02/13 03:50:06;;;;;;;23.25;13.80;;;;;;;2.59;89.39;100028.22;4157951;28;20206;-83
2023/02/13 03:52:15;;;;;;;21.20;13.32;;;;;;;2.57;89.20;100027.38;4140150;28;20306;-83
2023/02/13 03:59:16;;;;;;;24.55;13.10;;;;;;;2.54;88.66;100029.97;4166958;28;20484;-83
2023/02/13 04:01:23;;;;;;;20.17;12.45;;;;;;;2.58;88.81;100041.09;4155403;28;20218;-83
2023/02/13 04:03:28;;;;;;;20.50;13.70;;;;;;;2.55;89.35;100041.97;4172999;28;20234;-83
2023/02/13 04:05:33;;;;;;;20.02;12.43;;;;;;;2.52;89.15;100041.97;4157240;28;20234;-83
2023/02/13 04:07:38;;;;;;;21.60;13.05;;;;;;;2.52;88.99;100047.13;4149193;28;20594;-83
2023/02/13 04:09:43;;;;;;;20.45;12.85;;;;;;;2.51;88.59;100047.13;4150863;28;20751;-83
2023/02/13 04:11:52;;;;;;;20.38;12.20;;;;;;;2.49;88.49;100046.31;4171198;28;20639;-83
2023/02/13 04:13:57;;;;;;;23.45;13.75;;;;;;;2.47;88.44;100051.47;4168017;28;20723;-83
2023/02/13 04:16:06;;;;;;;20.63;13.35;;;;;;;2.46;88.61;100047.16;4173363;28;20198;-83
2023/02/13 04:18:12;;;;;;;22.33;13.43;;;;;;;2.45;88.74;100054.91;4158593;28;20213;-83
2023/02/13 04:20:15;;;;;;;22.63;14.00;;;;;;;2.42;89.16;100050.63;4158730;28;20206;-82
2023/02/13 04:22:19;;;;;;;22.63;14.18;;;;;;;2.39;88.52;100053.22;4171430;28;20202;-83
2023/02/13 04:24:23;;;;;;;20.90;12.85;;;;;;;2.37;88.28;100054.09;4139678;28;20212;-83
2023/02/13 04:26:31;;;;;;;22.17;14.57;;;;;;;2.35;88.50;100048.94;4171500;28;21848;-84
2023/02/13 04:28:34;;;;;;;21.05;12.35;;;;;;;2.33;88.08;100055.81;4147949;28;20244;-82
2023/02/13 04:30:38;;;;;;;20.85;13.68;;;;;;;2.31;87.99;100048.13;4167299;28;20245;-83
2023/02/13 04:32:41;;;;;;;20.80;12.90;;;;;;;2.29;88.28;100057.56;4153466;28;20203;-83
2023/02/13 04:34:44;;;;;;;20.65;13.68;;;;;;;2.26;87.88;100052.44;4153510;28;20257;-83
2023/02/13 04:36:47;;;;;;;20.60;13.55;;;;;;;2.27;87.61;100054.13;4155186;28;20203;-83
2023/02/13 04:38:50;;;;;;;23.42;14.90;;;;;;;2.24;87.63;100052.44;4154197;28;20212;-83
2023/02/13 04:40:55;;;;;;;23.48;14.98;;;;;;;2.22;87.82;100050.72;4136820;28;20214;-83
2023/02/13 04:42:58;;;;;;;23.25;13.88;;;;;;;2.22;87.68;100051.56;4169249;28;20221;-83
2023/02/13 04:45:02;;;;;;;22.23;13.82;;;;;;;2.23;87.66;100040.44;4155304;28;20203;-84
2023/02/13 04:47:05;;;;;;;27.25;14.15;;;;;;;2.21;87.66;100046.44;4170862;28;20205;-83
2023/02/13 04:49:08;;;;;;;21.17;13.70;;;;;;;2.19;87.53;100040.44;4137103;28;20199;-84
2023/02/13 04:51:11;;;;;;;23.15;14.13;;;;;;;2.19;87.84;100051.59;4157396;28;20734;-83
2023/02/13 04:53:14;;;;;;;21.40;13.75;;;;;;;2.19;88.19;100045.59;4170069;28;20202;-83
2023/02/13 04:55:17;;;;;;;19.83;13.15;;;;;;;2.20;87.76;100052.47;4153636;28;20286;-83
2023/02/13 04:57:21;;;;;;;24.42;14.10;;;;;;;2.18;87.63;100046.44;4174298;28;20194;-83
2023/02/13 04:59:24;;;;;;;22.58;12.82;;;;;;;2.11;87.51;100044.78;4152372;28;20741;-83
2023/02/13 05:01:28;;;;;;;22.30;13.25;;;;;;;2.07;87.03;100049.06;4173451;28;20619;-84
2023/02/13 05:03:31;;;;;;;22.20;13.15;;;;;;;2.04;86.79;100045.66;4145262;28;20199;-83
2023/02/13 05:05:34;;;;;;;22.02;13.25;;;;;;;2.01;87.14;100045.66;4141849;28;20226;-83
2023/02/13 05:07:38;;;;;;;18.35;12.55;;;;;;;1.98;88.07;100043.09;4139969;28;20231;-83
2023/02/13 05:09:41;;;;;;;23.40;14.65;;;;;;;1.97;87.70;100046.53;4175354;28;20206;-85
2023/02/13 05:11:44;;;;;;;20.13;12.75;;;;;;;1.99;87.74;100047.41;4162158;28;20219;-86
2023/02/13 05:13:48;;;;;;;20.25;13.10;;;;;;;1.97;87.26;100054.22;4156896;28;20234;-85
2023/02/13 05:15:52;;;;;;;23.17;13.63;;;;;;;1.98;87.33;100055.97;4142916;28;23863;-85
2023/02/13 05:17:55;;;;;;;22.30;14.27;;;;;;;1.97;87.59;100049.97;4158542;28;20199;-86
2023/02/13 05:19:58;;;;;;;20.50;14.40;;;;;;;1.94;87.61;100056.84;4142774;28;20211;-85
2023/02/13 05:24:22;;;;;;;25.67;15.13;;;;;;;1.99;87.75;100055.09;4155874;28;20616;-86
2023/02/13 05:26:25;;;;;;;24.75;15.27;;;;;;;1.96;87.65;100055.13;4150527;28;20233;-86
2023/02/13 05:30:50;;;;;;;24.63;13.93;;;;;;;1.91;87.73;100051.72;4164349;28;20213;-86
2023/02/13 05:32:54;;;;;;;24.20;14.00;;;;;;;1.94;87.31;100055.13;4157892;28;20207;-86
2023/02/13 05:34:57;;;;;;;20.55;13.52;;;;;;;1.92;87.43;100056.84;4171678;28;20206;-85
2023/02/13 05:37:00;;;;;;;24.45;15.35;;;;;;;1.90;87.39;100050.00;4151418;28;20698;-86
2023/02/13 05:39:04;;;;;;;27.67;14.93;;;;;;;1.90;87.47;100052.56;4155412;28;20209;-85
2023/02/13 05:41:07;;;;;;;23.88;14.75;;;;;;;1.87;87.98;100048.28;4148721;28;21264;-86
2023/02/13 05:43:10;;;;;;;25.98;13.82;;;;;;;1.89;87.78;100045.69;4165958;28;20384;-84
2023/02/13 05:45:14;;;;;;;23.40;14.90;;;;;;;1.89;87.37;100053.41;4136856;28;20563;-86
2023/02/13 05:47:19;;;;;;;29.05;14.63;;;;;;;1.87;87.33;100052.56;4157149;28;20272;-84
2023/02/13 05:49:22;;;;;;;21.15;13.82;;;;;;;1.87;87.53;100055.16;4172113;28;20202;-87
2023/02/13 05:51:25;;;;;;;29.02;14.00;;;;;;;1.83;87.38;100056.00;4153942;28;20256;-85
2023/02/13 05:53:29;;;;;;;24.75;14.75;;;;;;;1.84;87.85;100054.31;4158327;28;20274;-85
2023/02/13 05:55:32;;;;;;;23.15;14.50;;;;;;;1.86;87.86;100053.41;4153420;28;20203;-85
2023/02/13 05:57:35;;;;;;;27.92;15.55;;;;;;;1.85;87.95;100058.56;4144861;28;20208;-86
2023/02/13 05:59:39;;;;;;;23.88;14.65;;;;;;;1.81;87.71;100052.59;4135822;28;20265;-86
2023/02/13 06:01:42;;;;;;;26.85;15.15;;;;;;;1.81;88.01;100055.16;4144060;28;20256;-85
2023/02/13 06:03:47;;;;;;;25.95;15.27;;;;;;;1.80;88.01;100044.88;4140983;28;20227;-86
2023/02/13 06:05:50;;;;;;;24.88;15.05;;;;;;;1.79;88.26;100049.19;4175472;28;20211;-85
2023/02/13 06:07:53;;;;;;;26.45;15.20;;;;;;;1.79;87.55;100044.03;4169168;28;20249;-85
2023/02/13 06:09:58;;;;;;;28.05;15.60;;;;;;;1.76;87.34;100046.63;4137959;28;20219;-85
2023/02/13 06:12:01;;;;;;;28.75;18.08;;;;;;;1.72;86.88;100046.63;4168727;28;20217;-86
2023/02/13 06:14:04;;;;;;;35.88;21.48;;;;;;;1.70;86.90;100049.19;4148700;28;20227;-86
2023/02/13 06:16:07;;;;;;;30.60;17.08;;;;;;;1.71;87.13;100050.88;4152372;28;20254;-86
2023/02/13 06:18:11;;;;;;;30.02;17.17;;;;;;;1.68;87.47;100048.31;4170068;28;20210;-85
2023/02/13 06:20:16;;;;;;;30.38;18.10;;;;;;;1.68;87.75;100050.03;4136584;28;20204;-86
2023/02/13 06:22:19;;;;;;;35.33;19.13;;;;;;;1.66;87.48;100052.63;4156370;28;20210;-87
2023/02/13 06:24:22;;;;;;;32.83;18.38;;;;;;;1.64;88.12;100053.47;4157584;28;20215;-86
2023/02/13 06:26:25;;;;;;;38.67;17.90;;;;;;;1.64;88.09;100051.78;4174137;28;20217;-86
2023/02/13 06:28:28;;;;;;;34.92;18.77;;;;;;;1.65;88.32;100053.47;4173725;28;20202;-85
2023/02/13 06:30:31;;;;;;;35.20;18.65;;;;;;;1.67;88.16;100051.78;4156282;28;20742;-86
2023/02/13 06:32:34;;;;;;;45.67;25.95;;;;;;;1.68;88.53;100058.59;4168575;28;20212;-86
2023/02/13 06:34:37;;;;;;;33.92;18.83;;;;;;;1.70;89.02;100056.91;4143940;28;20218;-86
2023/02/13 06:36:42;;;;;;;32.88;18.35;;;;;;;1.72;88.94;100056.91;4141064;28;20255;-86
2023/02/13 06:38:45;;;;;;;34.25;17.38;;;;;;;1.73;88.37;100062.03;4153474;28;20219;-87
2023/02/13 06:40:49;;;;;;;31.83;18.90;;;;;;;1.73;88.11;100063.75;4170355;28;20638;-85
2023/02/13 06:42:52;;;;;;;35.15;19.42;;;;;;;1.73;87.63;100064.63;4151558;28;20792;-86
2023/02/13 06:44:55;;;;;;;37.30;18.55;;;;;;;1.70;87.17;100056.91;4165493;28;20207;-86
2023/02/13 06:46:58;;;;;;;32.25;19.05;;;;;;;1.73;87.75;100064.63;4141743;28;20231;-86
2023/02/13 06:49:02;;;;;;;32.50;17.50;;;;;;;1.76;88.33;100074.00;4174214;28;20717;-87
2023/02/13 06:51:05;;;;;;;30.05;16.95;;;;;;;1.79;87.69;100069.75;4149242;28;20242;-87
2023/02/13 06:53:10;;;;;;;33.58;18.65;;;;;;;1.79;87.96;100069.75;4156631;28;20203;-87
2023/02/13 06:55:13;;;;;;;29.27;17.30;;;;;;;1.84;87.53;100073.16;4159093;28;20213;-85
2023/02/13 06:57:16;;;;;;;31.90;17.83;;;;;;;1.94;88.07;100077.44;4175893;28;20261;-85
2023/02/13 06:59:19;;;;;;;30.50;18.10;;;;;;;2.03;87.73;100079.94;4154809;28;20211;-85
2023/02/13 07:01:22;;;;;;;30.55;17.40;;;;;;;2.07;87.52;100082.50;4153327;28;20260;-85
2023/02/13 07:03:25;;;;;;;33.10;18.25;;;;;;;2.16;87.59;100079.06;4155330;28;20213;-87
2023/02/13 07:05:28;;;;;;;32.92;18.17;;;;;;;2.28;87.52;100081.59;4153593;28;20215;-86
2023/02/13 07:07:33;;;;;;;30.88;17.58;;;;;;;2.38;87.32;100084.97;4152655;28;20230;-85
2023/02/13 07:09:38;;;;;;;32.83;18.55;;;;;;;2.51;88.00;100089.22;4174667;28;20206;-85
2023/02/13 07:11:41;;;;;;;31.20;17.85;;;;;;;2.62;87.00;100092.56;4152497;28;20676;-86
2023/02/13 07:13:44;;;;;;;32.58;17.85;;;;;;;2.72;86.80;100091.69;4174529;28;20226;-86
2023/02/13 07:15:47;;;;;;;27.00;16.10;;;;;;;2.79;85.55;100092.50;4146399;28;20299;-86
2023/02/13 07:17:55;;;;;;;27.55;16.65;;;;;;;2.89;85.63;100095.00;4164786;28;20671;-86
2023/02/13 07:19:58;;;;;;;34.00;19.23;;;;;;;3.03;85.72;100095.78;4146779;28;20221;-86
2023/02/13 07:22:02;;;;;;;30.90;18.08;;;;;;;3.19;85.80;100094.78;4153330;28;20242;-86
2023/02/13 07:24:05;;;;;;;30.52;17.48;;;;;;;3.36;86.30;100099.78;4161061;28;20214;-86
2023/02/13 07:26:11;;;;;;;27.45;16.52;;;;;;;3.53;85.96;100102.25;4146818;28;20771;-86
2023/02/13 07:28:14;;;;;;;25.05;16.02;;;;;;;3.65;86.24;100100.41;4170736;28;20244;-86
2023/02/13 07:30:18;;;;;;;28.75;17.17;;;;;;;3.79;86.22;100098.56;4153768;28;20202;-85
2023/02/13 07:32:21;;;;;;;26.67;15.90;;;;;;;3.95;86.41;100103.53;4177017;28;20298;-86
2023/02/13 07:34:24;;;;;;;28.40;16.17;;;;;;;4.14;85.96;100109.41;4141144;28;20299;-83
2023/02/13 07:36:27;;;;;;;26.77;16.58;;;;;;;4.23;85.48;100116.16;4171547;28;20209;-83
2023/02/13 07:38:30;;;;;;;26.13;17.17;;;;;;;4.33;85.59;100117.78;4166407;28;20667;-83
2023/02/13 07:40:34;;;;;;;26.83;16.83;;;;;;;4.47;86.34;100110.72;4148194;28;20773;-85
2023/02/13 07:42:38;;;;;;;24.92;15.52;;;;;;;4.64;85.37;100119.09;4147080;28;20723;-84
2023/02/13 07:44:41;;;;;;;23.83;14.20;;;;;;;4.76;85.53;100116.38;4162436;28;20229;-84
2023/02/13 07:46:44;;;;;;;26.33;16.05;;;;;;;4.90;84.94;100119.63;4140858;28;20204;-86
2023/02/13 07:48:48;;;;;;;21.60;14.27;;;;;;;5.05;84.71;100125.44;4157753;28;20233;-85
2023/02/13 07:50:51;;;;;;;21.30;14.32;;;;;;;5.21;84.85;100112.25;4139466;28;20572;-83
2023/02/13 07:52:54;;;;;;;22.27;14.90;;;;;;;5.36;84.26;100118.94;4174839;28;20287;-84
2023/02/13 07:54:58;;;;;;;20.48;14.10;;;;;;;5.48;83.41;100117.00;4153554;28;20227;-81
2023/02/13 07:57:01;;;;;;;22.00;14.88;;;;;;;5.58;83.00;100122.88;4158329;28;20289;-83
2023/02/13 07:59:05;;;;;;;22.45;14.18;;;;;;;5.67;83.00;100115.84;4155427;28;20278;-84
2023/02/13 08:01:11;;;;;;;22.50;15.48;;;;;;;5.76;82.74;100120.91;4137909;28;20211;-84
2023/02/13 08:03:14;;;;;;;21.27;13.77;;;;;;;5.79;82.05;100119.13;4175042;28;20240;-83
2023/02/13 08:05:18;;;;;;;23.45;14.43;;;;;;;5.87;81.86;100127.59;4141490;28;20696;-83
2023/02/13 08:07:21;;;;;;;20.38;13.88;;;;;;;5.93;81.80;100134.41;4150901;28;20208;-84
2023/02/13 08:11:53;;;;;;;22.85;15.25;;;;;;;5.95;81.52;100130.88;4172678;28;20309;-84
2023/02/13 08:13:57;;;;;;;21.10;13.68;;;;;;;6.08;82.24;100134.16;4151576;28;20218;-85
2023/02/13 08:16:02;;;;;;;20.75;14.35;;;;;;;6.13;82.23;100134.03;4168083;28;20312;-84
2023/02/13 08:18:06;;;;;;;19.00;13.38;;;;;;;6.16;81.41;100127.94;4168311;28;20201;-85
2023/02/13 08:20:10;;;;;;;20.65;14.15;;;;;;;6.24;81.29;100124.31;4141625;28;20506;-84
2023/02/13 08:22:13;;;;;;;20.88;15.30;;;;;;;6.31;80.64;100125.06;4159545;28;20640;-85
2023/02/13 08:24:19;;;;;;;21.20;14.23;;;;;;;6.36;81.02;100113.72;4155652;28;20249;-85
2023/02/13 08:26:22;;;;;;;21.00;14.77;;;;;;;6.47;81.30;100119.56;4134287;28;20302;-84
2023/02/13 08:28:25;;;;;;;19.65;15.15;;;;;;;6.57;80.80;100124.53;4140843;28;20227;-84
2023/02/13 08:30:29;;;;;;;21.38;14.00;;;;;;;6.58;80.51;100118.47;4154945;28;20215;-85
2023/02/13 08:32:33;;;;;;;22.17;14.45;;;;;;;6.72;83.52;100121.63;4150248;28;20293;-84
2023/02/13 08:34:50;;;;;;;21.00;13.77;;;;;;;6.91;81.35;100122.94;4170788;28;20206;-84
2023/02/13 08:36:53;;;;;;;18.60;13.32;;;;;;;6.94;80.64;100122.84;4151455;28;20203;-84
2023/02/13 08:38:56;;;;;;;17.98;12.80;;;;;;;6.95;81.03;100127.19;4159134;28;20679;-85
2023/02/13 08:41:00;;;;;;;19.38;13.55;;;;;;;7.01;81.21;100131.38;4161854;28;20210;-85
2023/02/13 08:43:04;;;;;;;16.17;12.65;;;;;;;7.08;81.65;100128.59;4158231;28;20293;-83
2023/02/13 08:45:10;;;;;;;22.13;15.18;;;;;;;7.23;80.78;100131.72;4172099;28;20213;-82
2023/02/13 08:47:13;;;;;;;18.20;13.57;;;;;;;7.26;80.18;100130.78;4171217;28;20214;-83
2023/02/13 08:49:18;;;;;;;19.88;13.52;;;;;;;7.30;80.16;100133.28;4166877;28;20222;-85
2023/02/13 08:51:21;;;;;;;18.02;13.15;;;;;;;7.30;80.32;100133.28;4175805;28;20547;-83
2023/02/13 08:53:25;;;;;;;18.65;13.70;;;;;;;7.43;79.63;100126.94;4138433;28;20723;-83
2023/02/13 08:55:30;;;;;;;20.45;14.70;;;;;;;7.46;79.93;100131.19;4138060;28;20195;-85
2023/02/13 08:57:33;;;;;;;18.27;13.70;;;;;;;7.52;79.97;100134.50;4157066;28;20246;-84
2023/02/13 08:59:36;;;;;;;18.15;14.13;;;;;;;7.55;78.66;100126.66;4153025;28;20215;-84
2023/02/13 09:01:39;;;;;;;18.77;13.85;;;;;;;7.65;80.18;100131.59;4168746;28;20206;-84
2023/02/13 09:03:43;;;;;;;19.25;13.70;;;;;;;7.69;78.50;100124.56;4158270;28;20227;-84
2023/02/13 09:05:47;;;;;;;19.90;13.55;;;;;;;7.78;79.72;100126.94;4177065;28;20671;-84
2023/02/13 09:07:50;;;;;;;17.70;13.32;;;;;;;7.76;79.82;100129.56;4156662;28;20210;-84
2023/02/13 09:09:54;;;;;;;19.00;13.20;;;;;;;7.86;80.51;100127.59;4150138;28;20771;-84
2023/02/13 09:11:57;;;;;;;17.60;12.75;;;;;;;7.96;79.96;100132.50;4177465;28;20309;-85
2023/02/13 09:14:00;;;;;;;17.70;12.95;;;;;;;8.05;80.16;100135.72;4159784;28;20261;-84
2023/02/13 09:16:04;;;;;;;17.33;13.07;;;;;;;8.01;78.90;100131.53;4176807;28;20620;-84
2023/02/13 09:18:07;;;;;;;19.30;13.35;;;;;;;8.02;78.91;100132.38;4154906;28;20207;-84
2023/02/13 09:20:12;;;;;;;19.67;14.82;;;;;;;8.02;79.89;100127.16;4137694;28;20930;-84
2023/02/13 09:22:17;;;;;;;19.02;13.85;;;;;;;8.03;78.96;100127.13;4139712;28;20318;-84
2023/02/13 09:24:20;;;;;;;19.00;13.48;;;;;;;8.26;79.96;100142.16;4177615;28;20269;-84
2023/02/13 09:26:23;;;;;;;18.40;13.50;;;;;;;8.36;79.01;100141.88;4177762;28;20205;-84
2023/02/13 09:28:27;;;;;;;15.93;11.90;;;;;;;8.51;78.91;100142.31;4177594;28;20250;-84
2023/02/13 09:30:30;;;;;;;17.85;13.48;;;;;;;8.52;78.96;100136.22;4175263;28;20848;-84
2023/02/13 09:32:34;;;;;;;17.85;12.27;;;;;;;8.56;79.47;100136.97;4175532;28;20209;-84
2023/02/13 09:34:37;;;;;;;16.95;13.20;;;;;;;8.66;78.50;100148.81;4161106;28;20297;-84
2023/02/13 09:36:40;;;;;;;19.15;13.55;;;;;;;8.73;77.61;100145.16;4160647;28;20263;-84
2023/02/13 09:38:45;;;;;;;16.40;12.10;;;;;;;8.81;77.98;100145.78;4175786;28;20691;-84
2023/02/13 09:40:50;;;;;;;17.73;14.15;;;;;;;8.89;79.40;100143.84;4156309;28;20206;-84
2023/02/13 09:42:54;;;;;;;18.10;13.32;;;;;;;8.98;77.70;100145.25;4156543;28;20686;-84
2023/02/13 09:44:59;;;;;;;18.40;13.30;;;;;;;9.02;77.29;100144.28;4171771;28;20586;-84
2023/02/13 09:47:05;;;;;;;18.45;14.25;;;;;;;9.05;77.88;100144.19;4157624;28;20981;-84
2023/02/13 09:49:12;;;;;;;17.83;13.40;;;;;;;9.13;77.72;100141.38;4170636;28;20241;-85
2023/02/13 09:51:17;;;;;;;19.02;14.43;;;;;;;9.29;78.04;100151.28;4157123;28;20213;-85
2023/02/13 09:53:22;;;;;;;16.48;13.43;;;;;;;9.47;78.49;100146.34;4177608;28;20233;-85
2023/02/13 09:55:30;;;;;;;18.33;11.82;;;;;;;9.65;78.86;100158.81;4139882;28;20204;-85
2023/02/13 09:57:34;;;;;;;18.92;13.02;;;;;;;9.79;78.24;100142.69;4143222;28;20691;-85
2023/02/13 09:59:46;;;;;;;16.67;12.07;;;;;;;9.94;77.10;100145.72;4155856;28;20254;-85
2023/02/13 10:01:50;;;;;;;17.35;11.32;;;;;;;10.05;76.83;100144.44;4173903;28;20198;-85
2023/02/13 10:04:15;;;;;;;13.98;11.80;;;;;;;10.18;76.09;100147.47;4157559;28;20222;-85
2023/02/13 10:06:24;;;;;;;13.15;10.80;;;;;;;10.21;75.11;100145.66;4130120;28;20219;-84
2023/02/13 10:08:35;;;;;;;15.98;12.18;;;;;;;10.32;74.42;100146.97;4132655;28;20245;-84
2023/02/13 10:10:48;;;;;;;14.23;11.38;;;;;;;10.35;74.87;100149.47;4132574;28;20200;-85
2023/02/13 10:13:13;;;;;;;15.88;12.00;;;;;;;10.48;74.75;100147.31;4159200;28;20772;-84
2023/02/13 10:15:22;;;;;;;15.73;12.25;;;;;;;10.60;74.58;100149.44;4170488;28;20214;-84
2023/02/13 10:17:30;;;;;;;12.18;10.77;;;;;;;10.72;73.92;100141.19;4171391;28;20256;-84